Texas General Land Office
 Texas General Land Office
 George P. Bush, Commissioner

 Oil Spill Prevention
 & Response

Texas Automated Buoy System
Real Time Ocean Observations
Supporting Oil Spill Prevention and
Response since 1995
Geochemical and Environmental Research Group

TABS Buoy B -- Texas Automated Buoy System

TABS Buoy B Conditions at 01/20/2019 17:30 UTC (01/20/2019 11:30 CST)
28° 58.9386'N   94° 53.9436'W
AA3900 DCS - sensor depth 2m
Anemometer height: 4m
Water Depth: 63 feet (19 meters)
Speed: 61.04 cm/s (1.19 kts) Direction: 46 °T (NE) Water Temp: 15°C (59 °F)
System Voltage: 11.8 V Signal Strength: -1.9 dB Ping Count: 139
Wind: 4.9 m/s (9.5 kts)
          From 359°T (N)
Air Temp: N/A
Relative Humidity:  N/A
Pressure: 1029.0 mb (30.38 inHg)

  


IMPORTANT: Notice to Mariners


Today's Velocity Data (download)

   Date   |  Time  |   East |   North|   Speed|  Dir | WaterT |
          |  (UTC) |  (cm/s)|  (cm/s)|  (cm/s)| (°T) |  (°C)  |
==========+========+========+========+========+======+========+
01/20/2019 00:00:00    38.56   -13.07    40.71  108.7   15.4
01/20/2019 00:30:00    40.09   -13.67    42.36  108.8   15.4
01/20/2019 01:00:00    39.43    -9.30    40.51  103.3   15.4
01/20/2019 01:30:00    45.65   -11.60    47.10  104.3   15.4
01/20/2019 02:00:00    47.05    -9.95    48.09  101.9   15.4
01/20/2019 02:30:00    47.60   -12.61    49.24  104.8   15.4
01/20/2019 03:00:00    47.17   -11.39    48.53  103.6   15.4
01/20/2019 03:30:00    45.12   -10.11    46.24  102.6   15.4
01/20/2019 04:00:00    42.21     1.15    42.23   88.4   15.4
01/20/2019 04:30:00    45.77    -0.21    45.77   90.3   15.4
01/20/2019 05:00:00    46.01     4.64    46.24   84.2   15.4
01/20/2019 05:30:00    49.88    10.37    50.95   78.3   15.4
01/20/2019 06:00:00    52.39    16.10    54.81   72.9   15.4
01/20/2019 06:30:00    51.44    14.60    53.47   74.2   15.4
01/20/2019 07:00:00    57.59    17.11    60.08   73.5   15.4
01/20/2019 07:30:00    60.20    21.18    63.82   70.6   15.4
01/20/2019 08:00:00    60.40    16.04    62.49   75.1   15.4
01/20/2019 08:30:00    55.78     7.49    56.28   82.4   15.4
01/20/2019 09:00:00    53.60    14.16    55.44   75.2   15.4
01/20/2019 09:30:00    48.04    15.28    50.41   72.4   15.4
01/20/2019 10:00:00    45.98     1.56    46.01   88.1   15.5
01/20/2019 10:30:00    48.00     2.23    48.05   87.3   15.5
01/20/2019 11:00:00    45.54     8.37    46.30   79.6   15.5
01/20/2019 11:30:00    49.10     5.28    49.38   83.9   15.5
01/20/2019 12:00:00    44.41     4.73    44.66   83.9   15.5
01/20/2019 12:30:00    37.07    -1.51    37.10   92.3   15.4
01/20/2019 13:00:00    54.37    -1.48    54.39   91.6   15.6
01/20/2019 13:30:00    47.25    19.36    51.06   67.7   15.6
01/20/2019 14:00:00    42.35     9.78    43.46   77.0   15.4
01/20/2019 14:30:00    45.75    23.82    51.58   62.5   15.5
01/20/2019 15:00:00    43.82    27.73    51.86   57.7   15.4
01/20/2019 15:30:00    35.32    33.26    48.52   46.7   15.1
01/20/2019 16:00:00    35.66    31.02    47.26   49.0   15.0
01/20/2019 16:30:00    31.98    32.25    45.42   44.8   14.8
01/20/2019 17:00:00    31.98    36.47    48.51   41.2   14.8
01/20/2019 17:30:00    43.75    42.57    61.04   45.8   15.0



       
 

Today's Temperature - Salinity Data     (Download)


   Date   |  Time  |   Temp |   Cond |Salinity| Density|SoundVel|
          |  (UTC) |   (°C) | (ms/cm)|        | kg/m^3 |  (m/s) |
==========+========+========+========+========+========+========+
01/20/2019 00:00:00    15.43    35.01    27.59     0.00     0.00
01/20/2019 00:30:00    15.41    35.15    27.72     0.00     0.00
01/20/2019 01:00:00    15.38    35.20    27.79     0.00     0.00
01/20/2019 01:30:00    15.39    35.46    28.01     0.00     0.00
01/20/2019 02:00:00    15.42    35.72    28.22     0.00     0.00
01/20/2019 02:30:00    15.41    35.92    28.40     0.00     0.00
01/20/2019 03:00:00    15.45    36.08    28.51     0.00     0.00
01/20/2019 03:30:00    15.44    36.18    28.61     0.00     0.00
01/20/2019 04:00:00    15.45    36.37    28.76     0.00     0.00
01/20/2019 04:30:00    15.45    36.53    28.91     0.00     0.00
01/20/2019 05:00:00    15.46    36.54    28.90     0.00     0.00
01/20/2019 05:30:00    15.43    36.64    29.02     0.00     0.00
01/20/2019 06:00:00    15.42    36.93    29.27     0.00     0.00
01/20/2019 06:30:00    15.39    36.78    29.17     0.00     0.00
01/20/2019 07:00:00    15.42    36.67    29.05     0.00     0.00
01/20/2019 07:30:00    15.40    36.60    29.00     0.00     0.00
01/20/2019 08:00:00    15.38    36.58    29.00     0.00     0.00
01/20/2019 08:30:00    15.42    36.85    29.21     0.00     0.00
01/20/2019 09:00:00    15.32    36.80    29.24     0.00     0.00
01/20/2019 09:30:00    15.45    37.27    29.56     0.00     0.00
01/20/2019 10:00:00    15.60    38.17    30.23     0.00     0.00
01/20/2019 10:30:00    15.55    38.08    30.19     0.00     0.00
01/20/2019 11:00:00    15.51    38.04    30.19     0.00     0.00
01/20/2019 11:30:00    15.54    38.19    30.30     0.00     0.00
01/20/2019 12:00:00    15.63    38.44    30.46     0.00     0.00
01/20/2019 12:30:00    15.58    39.11    31.08     0.00     0.00
01/20/2019 13:00:00    15.53    38.68    30.74     0.00     0.00
01/20/2019 13:30:00    15.73    38.83    30.71     0.00     0.00
01/20/2019 14:00:00    15.80    39.22    31.00     0.00     0.00
01/20/2019 14:30:00    15.49    38.01    30.17     0.00     0.00
01/20/2019 15:00:00    15.22    36.76    29.28     0.00     0.00
01/20/2019 15:30:00    15.11    36.55    29.18     0.00     0.00
01/20/2019 16:00:00    14.83    36.18    29.05     0.00     0.00
01/20/2019 16:30:00    14.75    36.04    28.99     0.00     0.00
01/20/2019 17:00:00    14.72    36.05    29.02     0.00     0.00
01/20/2019 17:30:00    15.18    37.16    29.66     0.00     0.00